sensor_id;sensor_type;location;lat;lon;timestamp;P1;durP1;ratioP1;P2;durP2;ratioP2
14187;SDS011;7175;51.978;5.330;2023-12-22T00:00:12;64.40;;;60.00;;
14187;SDS011;7175;51.978;5.330;2023-12-22T00:02:41;65.20;;;60.80;;
14187;SDS011;7175;51.978;5.330;2023-12-22T00:05:09;64.67;;;60.27;;
14187;SDS011;7175;51.978;5.330;2023-12-22T00:07:38;66.33;;;61.83;;
14187;SDS011;7175;51.978;5.330;2023-12-22T00:10:06;65.43;;;61.00;;
14187;SDS011;7175;51.978;5.330;2023-12-22T00:12:35;66.00;;;61.57;;
14187;SDS011;7175;51.978;5.330;2023-12-22T00:15:04;65.30;;;60.90;;
14187;SDS011;7175;51.978;5.330;2023-12-22T00:17:32;65.63;;;61.23;;
14187;SDS011;7175;51.978;5.330;2023-12-22T00:20:00;65.03;;;60.73;;
14187;SDS011;7175;51.978;5.330;2023-12-22T00:22:29;65.23;;;60.93;;
14187;SDS011;7175;51.978;5.330;2023-12-22T00:24:59;65.30;;;61.00;;
14187;SDS011;7175;51.978;5.330;2023-12-22T00:27:26;67.40;;;63.00;;
14187;SDS011;7175;51.978;5.330;2023-12-22T00:29:54;64.90;;;60.60;;
14187;SDS011;7175;51.978;5.330;2023-12-22T00:32:22;65.20;;;60.90;;
14187;SDS011;7175;51.978;5.330;2023-12-22T00:34:51;65.00;;;60.70;;
14187;SDS011;7175;51.978;5.330;2023-12-22T00:37:19;67.37;;;62.87;;
14187;SDS011;7175;51.978;5.330;2023-12-22T00:39:47;66.80;;;62.30;;
14187;SDS011;7175;51.978;5.330;2023-12-22T00:42:16;68.60;;;64.00;;
14187;SDS011;7175;51.978;5.330;2023-12-22T00:44:44;71.07;;;66.37;;
14187;SDS011;7175;51.978;5.330;2023-12-22T00:47:12;67.57;;;63.07;;
14187;SDS011;7175;51.978;5.330;2023-12-22T00:49:40;64.70;;;60.40;;
14187;SDS011;7175;51.978;5.330;2023-12-22T00:52:08;58.07;;;54.17;;
14187;SDS011;7175;51.978;5.330;2023-12-22T00:54:36;59.87;;;55.87;;
14187;SDS011;7175;51.978;5.330;2023-12-22T00:57:04;57.17;;;53.27;;
14187;SDS011;7175;51.978;5.330;2023-12-22T00:59:34;58.57;;;54.57;;
14187;SDS011;7175;51.978;5.330;2023-12-22T01:02:02;60.10;;;56.00;;
14187;SDS011;7175;51.978;5.330;2023-12-22T01:04:30;59.40;;;55.20;;
14187;SDS011;7175;51.978;5.330;2023-12-22T01:06:58;61.50;;;57.20;;
14187;SDS011;7175;51.978;5.330;2023-12-22T01:09:26;61.67;;;57.27;;
14187;SDS011;7175;51.978;5.330;2023-12-22T01:11:54;65.97;;;61.37;;
14187;SDS011;7175;51.978;5.330;2023-12-22T01:14:21;66.13;;;61.43;;
14187;SDS011;7175;51.978;5.330;2023-12-22T01:16:51;69.97;;;65.07;;
14187;SDS011;7175;51.978;5.330;2023-12-22T01:19:19;72.60;;;67.47;;
14187;SDS011;7175;51.978;5.330;2023-12-22T01:21:46;76.67;;;71.27;;
14187;SDS011;7175;51.978;5.330;2023-12-22T01:24:16;76.13;;;70.73;;
14187;SDS011;7175;51.978;5.330;2023-12-22T01:26:44;79.50;;;73.97;;
14187;SDS011;7175;51.978;5.330;2023-12-22T01:29:12;83.70;;;78.00;;
14187;SDS011;7175;51.978;5.330;2023-12-22T01:31:40;85.73;;;79.93;;
14187;SDS011;7175;51.978;5.330;2023-12-22T01:34:10;84.30;;;78.50;;
14187;SDS011;7175;51.978;5.330;2023-12-22T01:36:38;83.80;;;78.00;;
14187;SDS011;7175;51.978;5.330;2023-12-22T01:39:06;90.00;;;83.90;;
14187;SDS011;7175;51.978;5.330;2023-12-22T01:41:35;89.03;;;82.93;;
14187;SDS011;7175;51.978;5.330;2023-12-22T01:44:03;90.50;;;84.30;;
14187;SDS011;7175;51.978;5.330;2023-12-22T01:46:31;90.37;;;84.17;;
14187;SDS011;7175;51.978;5.330;2023-12-22T01:49:00;92.30;;;86.00;;
14187;SDS011;7175;51.978;5.330;2023-12-22T01:51:30;95.33;;;88.83;;
14187;SDS011;7175;51.978;5.330;2023-12-22T01:54:00;90.53;;;84.23;;
14187;SDS011;7175;51.978;5.330;2023-12-22T01:56:28;86.10;;;80.00;;
14187;SDS011;7175;51.978;5.330;2023-12-22T01:58:57;87.40;;;81.30;;
14187;SDS011;7175;51.978;5.330;2023-12-22T02:01:27;85.97;;;79.87;;
14187;SDS011;7175;51.978;5.330;2023-12-22T02:03:55;89.07;;;82.87;;
14187;SDS011;7175;51.978;5.330;2023-12-22T02:06:26;90.23;;;83.90;;
14187;SDS011;7175;51.978;5.330;2023-12-22T02:08:58;90.73;;;84.37;;
14187;SDS011;7175;51.978;5.330;2023-12-22T02:11:26;91.27;;;84.97;;
14187;SDS011;7175;51.978;5.330;2023-12-22T02:13:54;92.50;;;86.10;;
14187;SDS011;7175;51.978;5.330;2023-12-22T02:16:25;92.00;;;85.60;;
14187;SDS011;7175;51.978;5.330;2023-12-22T02:19:00;90.13;;;83.87;;
14187;SDS011;7175;51.978;5.330;2023-12-22T02:21:37;89.80;;;83.57;;
14187;SDS011;7175;51.978;5.330;2023-12-22T02:24:36;88.53;;;82.40;;
14187;SDS011;7175;51.978;5.330;2023-12-22T02:27:05;85.00;;;79.00;;
14187;SDS011;7175;51.978;5.330;2023-12-22T02:29:35;88.00;;;81.90;;
14187;SDS011;7175;51.978;5.330;2023-12-22T02:32:06;90.73;;;84.53;;
14187;SDS011;7175;51.978;5.330;2023-12-22T02:34:37;88.10;;;82.03;;
14187;SDS011;7175;51.978;5.330;2023-12-22T02:37:07;87.70;;;81.67;;
14187;SDS011;7175;51.978;5.330;2023-12-22T02:39:38;86.97;;;81.07;;
14187;SDS011;7175;51.978;5.330;2023-12-22T02:42:08;87.43;;;81.53;;
14187;SDS011;7175;51.978;5.330;2023-12-22T02:44:37;85.83;;;80.07;;
14187;SDS011;7175;51.978;5.330;2023-12-22T02:47:05;81.07;;;75.60;;
14187;SDS011;7175;51.978;5.330;2023-12-22T02:49:33;81.93;;;76.47;;
14187;SDS011;7175;51.978;5.330;2023-12-22T02:52:01;80.77;;;75.37;;
14187;SDS011;7175;51.978;5.330;2023-12-22T02:54:29;81.10;;;75.70;;
14187;SDS011;7175;51.978;5.330;2023-12-22T02:57:00;77.37;;;72.27;;
14187;SDS011;7175;51.978;5.330;2023-12-22T02:59:28;75.47;;;70.50;;
14187;SDS011;7175;51.978;5.330;2023-12-22T03:01:57;76.77;;;71.77;;
14187;SDS011;7175;51.978;5.330;2023-12-22T03:04:25;73.87;;;69.07;;
14187;SDS011;7175;51.978;5.330;2023-12-22T03:06:53;75.17;;;70.17;;
14187;SDS011;7175;51.978;5.330;2023-12-22T03:09:21;75.67;;;70.67;;
14187;SDS011;7175;51.978;5.330;2023-12-22T03:11:49;74.97;;;69.97;;
14187;SDS011;7175;51.978;5.330;2023-12-22T03:14:22;74.20;;;69.20;;
14187;SDS011;7175;51.978;5.330;2023-12-22T03:16:50;73.80;;;68.80;;
14187;SDS011;7175;51.978;5.330;2023-12-22T03:19:18;74.30;;;69.30;;
14187;SDS011;7175;51.978;5.330;2023-12-22T03:21:46;76.13;;;71.03;;
14187;SDS011;7175;51.978;5.330;2023-12-22T03:24:14;78.53;;;73.33;;
14187;SDS011;7175;51.978;5.330;2023-12-22T03:26:42;77.23;;;72.03;;
14187;SDS011;7175;51.978;5.330;2023-12-22T03:29:10;79.60;;;74.30;;
14187;SDS011;7175;51.978;5.330;2023-12-22T03:31:39;76.67;;;71.57;;
14187;SDS011;7175;51.978;5.330;2023-12-22T03:34:07;73.50;;;68.60;;
14187;SDS011;7175;51.978;5.330;2023-12-22T03:36:35;71.67;;;66.97;;
14187;SDS011;7175;51.978;5.330;2023-12-22T03:39:03;70.73;;;66.13;;
14187;SDS011;7175;51.978;5.330;2023-12-22T03:41:32;67.37;;;62.97;;
14187;SDS011;7175;51.978;5.330;2023-12-22T03:44:00;70.13;;;65.53;;
14187;SDS011;7175;51.978;5.330;2023-12-22T03:46:28;67.33;;;62.93;;
14187;SDS011;7175;51.978;5.330;2023-12-22T03:48:57;72.93;;;68.23;;
14187;SDS011;7175;51.978;5.330;2023-12-22T03:51:25;70.43;;;65.83;;
14187;SDS011;7175;51.978;5.330;2023-12-22T03:53:53;70.87;;;66.27;;
14187;SDS011;7175;51.978;5.330;2023-12-22T03:56:21;67.90;;;63.47;;
14187;SDS011;7175;51.978;5.330;2023-12-22T03:58:49;68.73;;;64.33;;
14187;SDS011;7175;51.978;5.330;2023-12-22T04:01:17;63.63;;;59.43;;
14187;SDS011;7175;51.978;5.330;2023-12-22T04:03:45;59.70;;;55.70;;
14187;SDS011;7175;51.978;5.330;2023-12-22T04:06:15;53.00;;;49.50;;
14187;SDS011;7175;51.978;5.330;2023-12-22T04:08:43;48.30;;;45.00;;
14187;SDS011;7175;51.978;5.330;2023-12-22T04:11:11;46.20;;;43.00;;
14187;SDS011;7175;51.978;5.330;2023-12-22T04:13:39;41.80;;;38.90;;
14187;SDS011;7175;51.978;5.330;2023-12-22T04:16:07;42.23;;;39.30;;
14187;SDS011;7175;51.978;5.330;2023-12-22T04:18:35;40.03;;;37.23;;
14187;SDS011;7175;51.978;5.330;2023-12-22T04:21:03;39.87;;;37.07;;
14187;SDS011;7175;51.978;5.330;2023-12-22T04:23:32;37.00;;;34.40;;
14187;SDS011;7175;51.978;5.330;2023-12-22T04:26:00;35.30;;;32.80;;
14187;SDS011;7175;51.978;5.330;2023-12-22T04:28:29;34.07;;;31.63;;
14187;SDS011;7175;51.978;5.330;2023-12-22T04:30:57;34.17;;;31.70;;
14187;SDS011;7175;51.978;5.330;2023-12-22T04:33:25;33.67;;;31.27;;
14187;SDS011;7175;51.978;5.330;2023-12-22T04:35:53;31.63;;;29.33;;
14187;SDS011;7175;51.978;5.330;2023-12-22T04:38:21;32.73;;;30.33;;
14187;SDS011;7175;51.978;5.330;2023-12-22T04:40:51;33.33;;;30.93;;
14187;SDS011;7175;51.978;5.330;2023-12-22T04:43:19;31.93;;;29.63;;
14187;SDS011;7175;51.978;5.330;2023-12-22T04:45:47;32.40;;;30.00;;
14187;SDS011;7175;51.978;5.330;2023-12-22T04:48:15;35.60;;;33.03;;
14187;SDS011;7175;51.978;5.330;2023-12-22T04:50:43;37.60;;;35.00;;
14187;SDS011;7175;51.978;5.330;2023-12-22T04:53:11;40.00;;;37.20;;
14187;SDS011;7175;51.978;5.330;2023-12-22T04:55:39;40.63;;;37.83;;
14187;SDS011;7175;51.978;5.330;2023-12-22T04:58:08;38.10;;;35.40;;
14187;SDS011;7175;51.978;5.330;2023-12-22T05:00:36;39.07;;;36.37;;
14187;SDS011;7175;51.978;5.330;2023-12-22T05:03:04;36.53;;;33.93;;
14187;SDS011;7175;51.978;5.330;2023-12-22T05:05:32;38.30;;;35.60;;
14187;SDS011;7175;51.978;5.330;2023-12-22T05:08:00;36.70;;;34.10;;
14187;SDS011;7175;51.978;5.330;2023-12-22T05:10:29;38.20;;;35.50;;
14187;SDS011;7175;51.978;5.330;2023-12-22T05:12:57;39.90;;;37.17;;
14187;SDS011;7175;51.978;5.330;2023-12-22T05:15:26;37.33;;;34.73;;
14187;SDS011;7175;51.978;5.330;2023-12-22T05:17:54;36.90;;;34.30;;
14187;SDS011;7175;51.978;5.330;2023-12-22T05:20:22;37.20;;;34.60;;
14187;SDS011;7175;51.978;5.330;2023-12-22T05:22:50;36.50;;;33.90;;
14187;SDS011;7175;51.978;5.330;2023-12-22T05:25:18;35.87;;;33.27;;
14187;SDS011;7175;51.978;5.330;2023-12-22T05:27:46;36.80;;;34.20;;
14187;SDS011;7175;51.978;5.330;2023-12-22T05:30:15;34.67;;;32.17;;
14187;SDS011;7175;51.978;5.330;2023-12-22T05:32:45;35.77;;;33.17;;
14187;SDS011;7175;51.978;5.330;2023-12-22T05:35:13;36.13;;;33.53;;
14187;SDS011;7175;51.978;5.330;2023-12-22T05:37:41;36.70;;;34.10;;
14187;SDS011;7175;51.978;5.330;2023-12-22T05:40:09;39.57;;;36.77;;
14187;SDS011;7175;51.978;5.330;2023-12-22T05:42:38;43.87;;;40.97;;
14187;SDS011;7175;51.978;5.330;2023-12-22T05:45:06;48.00;;;44.80;;
14187;SDS011;7175;51.978;5.330;2023-12-22T05:47:37;52.50;;;49.00;;
14187;SDS011;7175;51.978;5.330;2023-12-22T05:50:07;55.17;;;51.47;;
14187;SDS011;7175;51.978;5.330;2023-12-22T05:52:37;56.50;;;52.70;;
14187;SDS011;7175;51.978;5.330;2023-12-22T05:55:05;57.80;;;53.80;;
14187;SDS011;7175;51.978;5.330;2023-12-22T05:57:34;57.40;;;53.33;;
14187;SDS011;7175;51.978;5.330;2023-12-22T06:00:03;59.27;;;55.07;;
14187;SDS011;7175;51.978;5.330;2023-12-22T06:02:33;57.43;;;53.23;;
14187;SDS011;7175;51.978;5.330;2023-12-22T06:05:01;57.23;;;53.03;;
14187;SDS011;7175;51.978;5.330;2023-12-22T06:07:31;62.33;;;57.72;;
14187;SDS011;7175;51.978;5.330;2023-12-22T06:09:59;60.67;;;56.27;;
14187;SDS011;7175;51.978;5.330;2023-12-22T06:12:27;57.33;;;53.20;;
14187;SDS011;7175;51.978;5.330;2023-12-22T06:14:55;51.83;;;47.93;;
14187;SDS011;7175;51.978;5.330;2023-12-22T06:17:23;52.77;;;48.87;;
14187;SDS011;7175;51.978;5.330;2023-12-22T06:19:51;52.97;;;49.07;;
14187;SDS011;7175;51.978;5.330;2023-12-22T06:22:19;49.43;;;45.73;;
14187;SDS011;7175;51.978;5.330;2023-12-22T06:24:50;49.70;;;46.00;;
14187;SDS011;7175;51.978;5.330;2023-12-22T06:27:18;52.10;;;48.20;;
14187;SDS011;7175;51.978;5.330;2023-12-22T06:29:46;54.00;;;50.07;;
14187;SDS011;7175;51.978;5.330;2023-12-22T06:32:15;52.80;;;48.90;;
14187;SDS011;7175;51.978;5.330;2023-12-22T06:34:44;51.90;;;48.10;;
14187;SDS011;7175;51.978;5.330;2023-12-22T06:37:12;52.30;;;48.50;;
14187;SDS011;7175;51.978;5.330;2023-12-22T06:39:40;50.87;;;47.17;;
14187;SDS011;7175;51.978;5.330;2023-12-22T06:42:09;48.30;;;44.70;;
14187;SDS011;7175;51.978;5.330;2023-12-22T06:44:41;49.10;;;45.50;;
14187;SDS011;7175;51.978;5.330;2023-12-22T06:47:09;49.97;;;46.27;;
14187;SDS011;7175;51.978;5.330;2023-12-22T06:49:38;48.50;;;44.90;;
14187;SDS011;7175;51.978;5.330;2023-12-22T06:52:06;48.90;;;45.30;;
14187;SDS011;7175;51.978;5.330;2023-12-22T06:54:34;47.07;;;43.47;;
14187;SDS011;7175;51.978;5.330;2023-12-22T06:57:02;48.70;;;45.10;;
14187;SDS011;7175;51.978;5.330;2023-12-22T06:59:32;48.20;;;44.50;;
14187;SDS011;7175;51.978;5.330;2023-12-22T07:02:02;47.10;;;43.57;;
14187;SDS011;7175;51.978;5.330;2023-12-22T07:07:48;47.40;;;43.90;;
14187;SDS011;7175;51.978;5.330;2023-12-22T07:10:17;48.13;;;44.53;;
14187;SDS011;7175;51.978;5.330;2023-12-22T07:12:45;46.93;;;43.43;;
14187;SDS011;7175;51.978;5.330;2023-12-22T07:15:15;45.60;;;42.10;;
14187;SDS011;7175;51.978;5.330;2023-12-22T07:17:44;43.80;;;40.40;;
14187;SDS011;7175;51.978;5.330;2023-12-22T07:20:12;41.90;;;38.60;;
14187;SDS011;7175;51.978;5.330;2023-12-22T07:22:40;43.70;;;40.30;;
14187;SDS011;7175;51.978;5.330;2023-12-22T07:25:08;42.53;;;39.23;;
14187;SDS011;7175;51.978;5.330;2023-12-22T07:27:38;42.20;;;38.87;;
14187;SDS011;7175;51.978;5.330;2023-12-22T07:30:06;44.10;;;40.70;;
14187;SDS011;7175;51.978;5.330;2023-12-22T07:32:39;44.07;;;40.67;;
14187;SDS011;7175;51.978;5.330;2023-12-22T07:35:08;40.90;;;37.70;;
14187;SDS011;7175;51.978;5.330;2023-12-22T07:37:37;42.73;;;39.33;;
14187;SDS011;7175;51.978;5.330;2023-12-22T07:40:06;44.77;;;41.17;;
14187;SDS011;7175;51.978;5.330;2023-12-22T07:42:35;47.83;;;43.93;;
14187;SDS011;7175;51.978;5.330;2023-12-22T07:45:04;49.17;;;45.13;;
14187;SDS011;7175;51.978;5.330;2023-12-22T07:47:34;50.93;;;46.63;;
14187;SDS011;7175;51.978;5.330;2023-12-22T07:50:04;63.33;;;58.33;;
14187;SDS011;7175;51.978;5.330;2023-12-22T07:52:34;65.13;;;60.03;;
14187;SDS011;7175;51.978;5.330;2023-12-22T07:55:05;66.40;;;61.20;;
14187;SDS011;7175;51.978;5.330;2023-12-22T07:57:35;61.73;;;56.73;;
14187;SDS011;7175;51.978;5.330;2023-12-22T08:00:04;59.63;;;54.77;;
14187;SDS011;7175;51.978;5.330;2023-12-22T08:02:33;65.87;;;60.67;;
14187;SDS011;7175;51.978;5.330;2023-12-22T08:05:01;64.50;;;59.33;;
14187;SDS011;7175;51.978;5.330;2023-12-22T08:07:30;61.13;;;56.13;;
14187;SDS011;7175;51.978;5.330;2023-12-22T08:09:58;56.90;;;52.10;;
14187;SDS011;7175;51.978;5.330;2023-12-22T08:12:27;61.23;;;56.33;;
14187;SDS011;7175;51.978;5.330;2023-12-22T08:14:58;61.13;;;56.23;;
14187;SDS011;7175;51.978;5.330;2023-12-22T08:17:26;70.63;;;65.30;;
14187;SDS011;7175;51.978;5.330;2023-12-22T08:19:54;70.90;;;65.50;;
14187;SDS011;7175;51.978;5.330;2023-12-22T08:22:36;74.50;;;68.80;;
14187;SDS011;7175;51.978;5.330;2023-12-22T08:25:11;85.00;;;78.90;;
14187;SDS011;7175;51.978;5.330;2023-12-22T08:27:39;87.77;;;81.27;;
14187;SDS011;7175;51.978;5.330;2023-12-22T08:30:08;89.97;;;83.27;;
14187;SDS011;7175;51.978;5.330;2023-12-22T08:32:39;84.20;;;77.60;;
14187;SDS011;7175;51.978;5.330;2023-12-22T08:35:09;87.97;;;81.20;;
14187;SDS011;7175;51.978;5.330;2023-12-22T08:37:41;86.20;;;79.20;;
14187;SDS011;7175;51.978;5.330;2023-12-22T08:40:09;84.07;;;77.07;;
14187;SDS011;7175;51.978;5.330;2023-12-22T08:42:39;81.93;;;74.93;;
14187;SDS011;7175;51.978;5.330;2023-12-22T08:45:09;83.63;;;76.43;;
14187;SDS011;7175;51.978;5.330;2023-12-22T08:47:38;84.70;;;77.40;;
14187;SDS011;7175;51.978;5.330;2023-12-22T08:50:07;87.90;;;80.30;;
14187;SDS011;7175;51.978;5.330;2023-12-22T08:52:36;87.73;;;80.13;;
14187;SDS011;7175;51.978;5.330;2023-12-22T08:55:06;87.03;;;79.43;;
14187;SDS011;7175;51.978;5.330;2023-12-22T08:57:34;87.07;;;79.37;;
14187;SDS011;7175;51.978;5.330;2023-12-22T09:00:05;88.20;;;80.50;;
14187;SDS011;7175;51.978;5.330;2023-12-22T09:02:33;87.57;;;79.87;;
14187;SDS011;7175;51.978;5.330;2023-12-22T09:05:02;85.87;;;78.17;;
14187;SDS011;7175;51.978;5.330;2023-12-22T09:07:32;85.80;;;78.10;;
14187;SDS011;7175;51.978;5.330;2023-12-22T09:10:00;89.03;;;81.03;;
14187;SDS011;7175;51.978;5.330;2023-12-22T09:12:34;87.47;;;79.67;;
14187;SDS011;7175;51.978;5.330;2023-12-22T09:15:02;84.63;;;76.83;;
14187;SDS011;7175;51.978;5.330;2023-12-22T09:17:31;79.97;;;72.27;;
14187;SDS011;7175;51.978;5.330;2023-12-22T09:20:01;86.43;;;78.37;;
14187;SDS011;7175;51.978;5.330;2023-12-22T09:22:30;87.47;;;79.43;;
14187;SDS011;7175;51.978;5.330;2023-12-22T09:24:58;89.50;;;81.40;;
14187;SDS011;7175;51.978;5.330;2023-12-22T09:27:26;91.93;;;83.80;;
14187;SDS011;7175;51.978;5.330;2023-12-22T09:29:58;85.50;;;77.53;;
14187;SDS011;7175;51.978;5.330;2023-12-22T09:32:26;82.17;;;74.57;;
14187;SDS011;7175;51.978;5.330;2023-12-22T09:34:55;83.40;;;75.87;;
14187;SDS011;7175;51.978;5.330;2023-12-22T09:37:25;85.27;;;77.57;;
14187;SDS011;7175;51.978;5.330;2023-12-22T09:39:53;85.73;;;78.10;;
14187;SDS011;7175;51.978;5.330;2023-12-22T09:42:21;84.63;;;77.10;;
14187;SDS011;7175;51.978;5.330;2023-12-22T09:44:53;80.10;;;73.00;;
14187;SDS011;7175;51.978;5.330;2023-12-22T09:47:25;84.43;;;76.93;;
14187;SDS011;7175;51.978;5.330;2023-12-22T09:49:55;85.73;;;78.23;;
14187;SDS011;7175;51.978;5.330;2023-12-22T09:52:24;85.63;;;78.23;;
14187;SDS011;7175;51.978;5.330;2023-12-22T09:54:54;84.03;;;76.63;;
14187;SDS011;7175;51.978;5.330;2023-12-22T09:57:25;84.77;;;77.40;;
14187;SDS011;7175;51.978;5.330;2023-12-22T09:59:55;83.87;;;76.67;;
14187;SDS011;7175;51.978;5.330;2023-12-22T10:02:25;88.03;;;80.63;;
14187;SDS011;7175;51.978;5.330;2023-12-22T10:04:56;82.90;;;75.70;;
14187;SDS011;7175;51.978;5.330;2023-12-22T10:07:25;84.00;;;76.80;;
14187;SDS011;7175;51.978;5.330;2023-12-22T10:09:54;82.93;;;75.70;;
14187;SDS011;7175;51.978;5.330;2023-12-22T10:12:22;80.50;;;73.70;;
14187;SDS011;7175;51.978;5.330;2023-12-22T10:14:51;76.70;;;70.20;;
14187;SDS011;7175;51.978;5.330;2023-12-22T10:17:21;79.63;;;73.13;;
14187;SDS011;7175;51.978;5.330;2023-12-22T10:19:51;78.57;;;72.07;;
14187;SDS011;7175;51.978;5.330;2023-12-22T10:22:19;73.93;;;67.73;;
14187;SDS011;7175;51.978;5.330;2023-12-22T10:24:50;70.57;;;64.57;;
14187;SDS011;7175;51.978;5.330;2023-12-22T10:27:18;69.60;;;63.70;;
14187;SDS011;7175;51.978;5.330;2023-12-22T10:29:48;70.80;;;64.80;;
14187;SDS011;7175;51.978;5.330;2023-12-22T10:32:17;73.67;;;67.60;;
14187;SDS011;7175;51.978;5.330;2023-12-22T10:34:45;73.27;;;67.27;;
14187;SDS011;7175;51.978;5.330;2023-12-22T10:37:14;74.30;;;68.20;;
14187;SDS011;7175;51.978;5.330;2023-12-22T10:39:43;72.43;;;66.43;;
14187;SDS011;7175;51.978;5.330;2023-12-22T10:42:14;70.80;;;65.00;;
14187;SDS011;7175;51.978;5.330;2023-12-22T10:44:42;71.70;;;65.80;;
14187;SDS011;7175;51.978;5.330;2023-12-22T10:47:10;72.23;;;66.27;;
14187;SDS011;7175;51.978;5.330;2023-12-22T10:49:38;71.40;;;65.60;;
14187;SDS011;7175;51.978;5.330;2023-12-22T10:52:08;71.77;;;65.97;;
14187;SDS011;7175;51.978;5.330;2023-12-22T10:54:43;65.87;;;60.47;;
14187;SDS011;7175;51.978;5.330;2023-12-22T10:57:12;63.87;;;58.50;;
14187;SDS011;7175;51.978;5.330;2023-12-22T10:59:40;68.10;;;62.57;;
14187;SDS011;7175;51.978;5.330;2023-12-22T11:02:23;67.83;;;62.23;;
14187;SDS011;7175;51.978;5.330;2023-12-22T11:04:57;72.27;;;66.57;;
14187;SDS011;7175;51.978;5.330;2023-12-22T11:07:28;61.40;;;56.37;;
14187;SDS011;7175;51.978;5.330;2023-12-22T11:09:59;57.47;;;52.67;;
14187;SDS011;7175;51.978;5.330;2023-12-22T11:12:31;54.67;;;50.03;;
14187;SDS011;7175;51.978;5.330;2023-12-22T11:15:01;54.30;;;49.70;;
14187;SDS011;7175;51.978;5.330;2023-12-22T11:17:32;59.20;;;54.30;;
14187;SDS011;7175;51.978;5.330;2023-12-22T11:20:01;59.80;;;54.90;;
14187;SDS011;7175;51.978;5.330;2023-12-22T11:22:32;55.23;;;50.57;;
14187;SDS011;7175;51.978;5.330;2023-12-22T11:25:05;53.23;;;48.73;;
14187;SDS011;7175;51.978;5.330;2023-12-22T11:27:37;55.73;;;51.03;;
14187;SDS011;7175;51.978;5.330;2023-12-22T11:30:06;57.47;;;52.67;;
14187;SDS011;7175;51.978;5.330;2023-12-22T11:32:36;54.70;;;50.10;;
14187;SDS011;7175;51.978;5.330;2023-12-22T11:35:04;53.47;;;48.90;;
14187;SDS011;7175;51.978;5.330;2023-12-22T11:37:34;52.77;;;48.23;;
14187;SDS011;7175;51.978;5.330;2023-12-22T11:40:05;51.83;;;47.43;;
14187;SDS011;7175;51.978;5.330;2023-12-22T11:42:35;49.90;;;45.60;;
14187;SDS011;7175;51.978;5.330;2023-12-22T11:45:12;44.23;;;40.33;;
14187;SDS011;7175;51.978;5.330;2023-12-22T11:47:42;46.93;;;42.83;;
14187;SDS011;7175;51.978;5.330;2023-12-22T11:50:11;58.70;;;53.80;;
14187;SDS011;7175;51.978;5.330;2023-12-22T11:52:39;59.33;;;54.47;;
14187;SDS011;7175;51.978;5.330;2023-12-22T11:55:09;64.67;;;59.40;;
14187;SDS011;7175;51.978;5.330;2023-12-22T11:57:37;66.57;;;61.17;;
14187;SDS011;7175;51.978;5.330;2023-12-22T12:00:07;73.10;;;67.30;;
14187;SDS011;7175;51.978;5.330;2023-12-22T12:02:39;71.67;;;65.90;;
14187;SDS011;7175;51.978;5.330;2023-12-22T12:05:07;73.27;;;67.47;;
14187;SDS011;7175;51.978;5.330;2023-12-22T12:07:38;66.90;;;61.40;;
14187;SDS011;7175;51.978;5.330;2023-12-22T12:10:08;70.60;;;64.90;;
14187;SDS011;7175;51.978;5.330;2023-12-22T12:12:36;68.40;;;62.80;;
14187;SDS011;7175;51.978;5.330;2023-12-22T12:15:06;74.30;;;68.50;;
14187;SDS011;7175;51.978;5.330;2023-12-22T12:17:43;70.47;;;64.87;;
14187;SDS011;7175;51.978;5.330;2023-12-22T12:20:11;66.43;;;61.03;;
14187;SDS011;7175;51.978;5.330;2023-12-22T12:22:39;64.43;;;59.23;;
14187;SDS011;7175;51.978;5.330;2023-12-22T12:25:11;65.70;;;60.50;;
14187;SDS011;7175;51.978;5.330;2023-12-22T12:28:00;53.20;;;48.70;;
14187;SDS011;7175;51.978;5.330;2023-12-22T12:30:29;50.87;;;46.47;;
14187;SDS011;7175;51.978;5.330;2023-12-22T12:32:58;47.47;;;43.37;;
14187;SDS011;7175;51.978;5.330;2023-12-22T12:35:33;51.97;;;47.57;;
14187;SDS011;7175;51.978;5.330;2023-12-22T12:38:06;54.20;;;49.60;;
14187;SDS011;7175;51.978;5.330;2023-12-22T12:40:35;63.27;;;58.17;;
14187;SDS011;7175;51.978;5.330;2023-12-22T12:43:07;62.17;;;57.07;;
14187;SDS011;7175;51.978;5.330;2023-12-22T12:45:36;61.67;;;56.67;;
14187;SDS011;7175;51.978;5.330;2023-12-22T12:48:04;57.83;;;53.00;;
14187;SDS011;7175;51.978;5.330;2023-12-22T12:50:34;57.87;;;52.97;;
14187;SDS011;7175;51.978;5.330;2023-12-22T12:53:04;54.30;;;49.70;;
14187;SDS011;7175;51.978;5.330;2023-12-22T12:55:33;53.93;;;49.33;;
14187;SDS011;7175;51.978;5.330;2023-12-22T12:58:03;53.33;;;48.83;;
14187;SDS011;7175;51.978;5.330;2023-12-22T13:00:32;50.50;;;46.20;;
14187;SDS011;7175;51.978;5.330;2023-12-22T13:03:03;49.97;;;45.67;;
14187;SDS011;7175;51.978;5.330;2023-12-22T13:05:33;47.30;;;43.20;;
14187;SDS011;7175;51.978;5.330;2023-12-22T13:08:08;43.70;;;39.80;;
14187;SDS011;7175;51.978;5.330;2023-12-22T13:10:40;46.57;;;42.57;;
14187;SDS011;7175;51.978;5.330;2023-12-22T13:13:08;47.93;;;43.73;;
14187;SDS011;7175;51.978;5.330;2023-12-22T13:15:39;46.03;;;41.93;;
14187;SDS011;7175;51.978;5.330;2023-12-22T13:18:08;44.73;;;40.73;;
14187;SDS011;7175;51.978;5.330;2023-12-22T13:20:36;45.17;;;41.27;;
14187;SDS011;7175;51.978;5.330;2023-12-22T13:23:04;44.47;;;40.57;;
14187;SDS011;7175;51.978;5.330;2023-12-22T13:25:37;43.20;;;39.40;;
14187;SDS011;7175;51.978;5.330;2023-12-22T13:28:07;45.10;;;41.10;;
14187;SDS011;7175;51.978;5.330;2023-12-22T13:30:36;42.00;;;38.27;;
14187;SDS011;7175;51.978;5.330;2023-12-22T13:33:08;41.27;;;37.57;;
14187;SDS011;7175;51.978;5.330;2023-12-22T13:35:37;40.33;;;36.73;;
14187;SDS011;7175;51.978;5.330;2023-12-22T13:38:08;42.07;;;38.27;;
14187;SDS011;7175;51.978;5.330;2023-12-22T13:40:43;42.60;;;38.80;;
14187;SDS011;7175;51.978;5.330;2023-12-22T13:43:12;40.30;;;36.60;;
14187;SDS011;7175;51.978;5.330;2023-12-22T13:45:41;40.83;;;37.13;;
14187;SDS011;7175;51.978;5.330;2023-12-22T13:48:09;41.90;;;38.20;;
14187;SDS011;7175;51.978;5.330;2023-12-22T13:50:38;43.10;;;39.30;;
14187;SDS011;7175;51.978;5.330;2023-12-22T13:53:07;50.10;;;45.80;;
14187;SDS011;7175;51.978;5.330;2023-12-22T13:55:36;51.10;;;46.80;;
14187;SDS011;7175;51.978;5.330;2023-12-22T13:58:07;49.93;;;45.63;;
14187;SDS011;7175;51.978;5.330;2023-12-22T14:00:38;55.57;;;50.97;;
14187;SDS011;7175;51.978;5.330;2023-12-22T14:03:09;54.17;;;49.47;;
14187;SDS011;7175;51.978;5.330;2023-12-22T14:05:37;55.80;;;51.10;;
14187;SDS011;7175;51.978;5.330;2023-12-22T14:08:05;56.73;;;52.03;;
14187;SDS011;7175;51.978;5.330;2023-12-22T14:10:34;53.40;;;48.90;;
14187;SDS011;7175;51.978;5.330;2023-12-22T14:13:02;55.77;;;51.13;;
14187;SDS011;7175;51.978;5.330;2023-12-22T14:15:31;57.50;;;52.70;;
14187;SDS011;7175;51.978;5.330;2023-12-22T14:18:10;59.23;;;54.43;;
14187;SDS011;7175;51.978;5.330;2023-12-22T14:20:38;58.13;;;53.33;;
14187;SDS011;7175;51.978;5.330;2023-12-22T14:23:06;54.57;;;49.97;;
14187;SDS011;7175;51.978;5.330;2023-12-22T14:25:39;55.73;;;51.03;;
14187;SDS011;7175;51.978;5.330;2023-12-22T14:28:08;56.17;;;51.47;;
14187;SDS011;7175;51.978;5.330;2023-12-22T14:30:37;50.87;;;46.47;;
14187;SDS011;7175;51.978;5.330;2023-12-22T14:33:05;48.57;;;44.30;;
14187;SDS011;7175;51.978;5.330;2023-12-22T14:35:33;46.53;;;42.43;;
14187;SDS011;7175;51.978;5.330;2023-12-22T14:38:01;49.10;;;44.80;;
14187;SDS011;7175;51.978;5.330;2023-12-22T14:40:29;53.33;;;48.83;;
14187;SDS011;7175;51.978;5.330;2023-12-22T14:42:57;56.00;;;51.40;;
14187;SDS011;7175;51.978;5.330;2023-12-22T14:45:25;51.90;;;47.50;;
14187;SDS011;7175;51.978;5.330;2023-12-22T14:47:54;49.37;;;45.07;;